Airfield :







YOU CAN JOIN US ON...

 
LOGIN :

Register | Disclaimer

   EN    FR    IT 

 









Legend :    VFR   Marginal VFR   IFR   Intensive IFR   Very Intensive IFR
Visi :
Ceiling :
>= 8 km
>= 3000ft
5 to 8 km
1000 to 3000 ft
1500m to 5 km
500 to 1000 ft
800 to 1500m
200 to 500 ft
< 800m
< 200 ft
Symbols :   Thunderstorms  Fog  Heavy snow  Heavy precipitations  Wind > 20 kt






- Airport Elevation : 1005 ft
- IATA code : YAH


CYAH - La Grande-4

CURRENT METAR :
  • 201900Z AUTO 16009KT 9SM CLR 07/01 A2996 RMK SLP162

EXPIRED METARs :
  • 201800Z AUTO 16007KT 090V170 9SM SCT160 07/01 A2996 RMK SLP165
  • 201700Z AUTO 15005KT 110V180 9SM CLR 06/00 A2998 RMK SLP171

TAF TAF CYAH
Valid from the 20 at 18:00 until the 20 at 21:00 UTC


201739Z 2018/2021 15008KT P6SM BKN140 BKN240 RMK FCST BASED ON AUTO OBS. NXT FCST WILL BE ISSUED AT 211045Z



MET'MAP, your aeronautical weather chart ! - Copyright ORBIFLY December 2007 - Disclaimer

ORBIFLY MET'MAP TEAM :

Programming & Development : Alexandra Zaïnal
Concept & Development : Baudouin d'Aumeries
Co-Development & Prog : Marc-Olivier Méhu
Technical & hardware support : Manuel Goepfert

Contact : metmap@orbifly.com




SOURCES & CREDITS :

   NOAA